sensor_id;sensor_type;location;lat;lon;timestamp;P1;durP1;ratioP1;P2;durP2;ratioP2
55202;SDS011;41077;52.956;6.796;2022-09-09T00:01:14;64.53;;;59.33;;
55202;SDS011;41077;52.956;6.796;2022-09-09T00:03:57;60.70;;;56.40;;
55202;SDS011;41077;52.956;6.796;2022-09-09T00:09:18;65.22;;;60.60;;
55202;SDS011;41077;52.956;6.796;2022-09-09T00:11:47;61.25;;;55.88;;
55202;SDS011;41077;52.956;6.796;2022-09-09T00:14:20;66.72;;;60.75;;
55202;SDS011;41077;52.956;6.796;2022-09-09T00:17:04;64.60;;;58.70;;
55202;SDS011;41077;52.956;6.796;2022-09-09T00:19:39;62.08;;;57.75;;
55202;SDS011;41077;52.956;6.796;2022-09-09T00:22:16;60.95;;;55.03;;
55202;SDS011;41077;52.956;6.796;2022-09-09T00:24:59;62.30;;;57.72;;
55202;SDS011;41077;52.956;6.796;2022-09-09T00:27:40;62.42;;;57.88;;
55202;SDS011;41077;52.956;6.796;2022-09-09T00:30:21;63.78;;;58.20;;
55202;SDS011;41077;52.956;6.796;2022-09-09T00:32:50;64.38;;;59.20;;
55202;SDS011;41077;52.956;6.796;2022-09-09T00:35:24;63.40;;;58.15;;
55202;SDS011;41077;52.956;6.796;2022-09-09T00:38:10;63.03;;;58.38;;
55202;SDS011;41077;52.956;6.796;2022-09-09T00:43:35;73.97;;;66.47;;
55202;SDS011;41077;52.956;6.796;2022-09-09T00:52:03;58.22;;;54.10;;
55202;SDS011;41077;52.956;6.796;2022-09-09T00:54:28;70.70;;;65.43;;
55202;SDS011;41077;52.956;6.796;2022-09-09T01:02:12;59.80;;;55.47;;
55202;SDS011;41077;52.956;6.796;2022-09-09T01:05:05;64.55;;;60.05;;
55202;SDS011;41077;52.956;6.796;2022-09-09T01:07:37;66.63;;;61.30;;
55202;SDS011;41077;52.956;6.796;2022-09-09T01:10:07;64.88;;;59.97;;
55202;SDS011;41077;52.956;6.796;2022-09-09T01:12:41;69.75;;;64.70;;
55202;SDS011;41077;52.956;6.796;2022-09-09T01:15:19;68.07;;;62.03;;
55202;SDS011;41077;52.956;6.796;2022-09-09T01:20:29;65.45;;;59.67;;
55202;SDS011;41077;52.956;6.796;2022-09-09T01:26:24;62.13;;;57.45;;
55202;SDS011;41077;52.956;6.796;2022-09-09T01:29:16;63.75;;;59.00;;
55202;SDS011;41077;52.956;6.796;2022-09-09T01:32:03;66.13;;;60.22;;
55202;SDS011;41077;52.956;6.796;2022-09-09T01:35:07;65.88;;;61.13;;
55202;SDS011;41077;52.956;6.796;2022-09-09T01:37:48;60.55;;;56.17;;
55202;SDS011;41077;52.956;6.796;2022-09-09T01:40:14;62.85;;;58.28;;
55202;SDS011;41077;52.956;6.796;2022-09-09T01:42:40;61.20;;;56.80;;
55202;SDS011;41077;52.956;6.796;2022-09-09T01:45:06;60.80;;;56.35;;
55202;SDS011;41077;52.956;6.796;2022-09-09T01:47:32;64.63;;;59.80;;
55202;SDS011;41077;52.956;6.796;2022-09-09T01:49:58;57.55;;;53.00;;
55202;SDS011;41077;52.956;6.796;2022-09-09T01:52:26;57.33;;;52.75;;
55202;SDS011;41077;52.956;6.796;2022-09-09T01:54:51;58.22;;;53.88;;
55202;SDS011;41077;52.956;6.796;2022-09-09T01:57:27;55.05;;;50.60;;
55202;SDS011;41077;52.956;6.796;2022-09-09T02:00:16;58.42;;;53.85;;
55202;SDS011;41077;52.956;6.796;2022-09-09T02:08:08;62.25;;;57.45;;
55202;SDS011;41077;52.956;6.796;2022-09-09T02:10:45;56.70;;;52.03;;
55202;SDS011;41077;52.956;6.796;2022-09-09T02:13:17;55.92;;;51.20;;
55202;SDS011;41077;52.956;6.796;2022-09-09T02:15:47;53.97;;;50.03;;
55202;SDS011;41077;52.956;6.796;2022-09-09T02:18:35;56.33;;;51.53;;
55202;SDS011;41077;52.956;6.796;2022-09-09T02:21:05;56.25;;;51.58;;
55202;SDS011;41077;52.956;6.796;2022-09-09T02:23:32;51.28;;;47.20;;
55202;SDS011;41077;52.956;6.796;2022-09-09T02:25:59;55.97;;;51.75;;
55202;SDS011;41077;52.956;6.796;2022-09-09T02:28:27;56.83;;;52.70;;
55202;SDS011;41077;52.956;6.796;2022-09-09T02:30:56;56.13;;;51.72;;
55202;SDS011;41077;52.956;6.796;2022-09-09T02:33:24;60.00;;;54.50;;
55202;SDS011;41077;52.956;6.796;2022-09-09T02:35:54;55.75;;;52.15;;
55202;SDS011;41077;52.956;6.796;2022-09-09T02:38:26;54.67;;;50.50;;
55202;SDS011;41077;52.956;6.796;2022-09-09T02:40:57;56.80;;;51.85;;
55202;SDS011;41077;52.956;6.796;2022-09-09T02:43:23;51.13;;;47.40;;
55202;SDS011;41077;52.956;6.796;2022-09-09T02:46:14;50.58;;;46.13;;
55202;SDS011;41077;52.956;6.796;2022-09-09T02:59:48;49.60;;;45.63;;
55202;SDS011;41077;52.956;6.796;2022-09-09T03:02:14;48.25;;;44.33;;
55202;SDS011;41077;52.956;6.796;2022-09-09T03:04:40;46.35;;;42.63;;
55202;SDS011;41077;52.956;6.796;2022-09-09T03:07:09;48.10;;;44.10;;
55202;SDS011;41077;52.956;6.796;2022-09-09T03:09:36;46.40;;;42.85;;
55202;SDS011;41077;52.956;6.796;2022-09-09T03:12:02;46.22;;;42.85;;
55202;SDS011;41077;52.956;6.796;2022-09-09T03:14:29;47.35;;;43.47;;
55202;SDS011;41077;52.956;6.796;2022-09-09T03:16:55;53.28;;;49.25;;
55202;SDS011;41077;52.956;6.796;2022-09-09T03:19:23;47.83;;;44.35;;
55202;SDS011;41077;52.956;6.796;2022-09-09T03:21:49;50.63;;;47.05;;
55202;SDS011;41077;52.956;6.796;2022-09-09T03:24:15;51.03;;;46.20;;
55202;SDS011;41077;52.956;6.796;2022-09-09T03:26:41;48.50;;;44.67;;
55202;SDS011;41077;52.956;6.796;2022-09-09T03:29:09;47.58;;;43.75;;
55202;SDS011;41077;52.956;6.796;2022-09-09T03:31:37;51.10;;;46.72;;
55202;SDS011;41077;52.956;6.796;2022-09-09T03:34:03;51.08;;;46.67;;
55202;SDS011;41077;52.956;6.796;2022-09-09T03:36:30;47.85;;;44.10;;
55202;SDS011;41077;52.956;6.796;2022-09-09T03:38:56;53.22;;;47.97;;
55202;SDS011;41077;52.956;6.796;2022-09-09T03:41:22;48.75;;;44.58;;
55202;SDS011;41077;52.956;6.796;2022-09-09T03:43:52;52.65;;;48.17;;
55202;SDS011;41077;52.956;6.796;2022-09-09T03:46:19;51.45;;;47.28;;
55202;SDS011;41077;52.956;6.796;2022-09-09T03:48:46;52.55;;;48.22;;
55202;SDS011;41077;52.956;6.796;2022-09-09T03:51:11;52.83;;;48.30;;
55202;SDS011;41077;52.956;6.796;2022-09-09T03:53:37;48.20;;;44.42;;
55202;SDS011;41077;52.956;6.796;2022-09-09T03:56:04;52.55;;;47.95;;
55202;SDS011;41077;52.956;6.796;2022-09-09T03:58:32;52.60;;;48.10;;
55202;SDS011;41077;52.956;6.796;2022-09-09T04:01:03;53.15;;;48.58;;
55202;SDS011;41077;52.956;6.796;2022-09-09T04:03:31;53.13;;;49.05;;
55202;SDS011;41077;52.956;6.796;2022-09-09T04:05:58;54.88;;;50.10;;
55202;SDS011;41077;52.956;6.796;2022-09-09T04:08:25;51.80;;;47.47;;
55202;SDS011;41077;52.956;6.796;2022-09-09T04:10:52;53.63;;;49.05;;
55202;SDS011;41077;52.956;6.796;2022-09-09T04:13:18;53.63;;;48.72;;
55202;SDS011;41077;52.956;6.796;2022-09-09T04:15:50;49.70;;;45.42;;
55202;SDS011;41077;52.956;6.796;2022-09-09T04:18:17;53.38;;;49.38;;
55202;SDS011;41077;52.956;6.796;2022-09-09T04:20:45;55.67;;;51.33;;
55202;SDS011;41077;52.956;6.796;2022-09-09T04:23:16;50.88;;;46.90;;
55202;SDS011;41077;52.956;6.796;2022-09-09T04:25:47;47.78;;;43.90;;
55202;SDS011;41077;52.956;6.796;2022-09-09T04:28:14;52.28;;;48.15;;
55202;SDS011;41077;52.956;6.796;2022-09-09T04:30:41;51.75;;;47.15;;
55202;SDS011;41077;52.956;6.796;2022-09-09T04:33:08;51.90;;;47.28;;
55202;SDS011;41077;52.956;6.796;2022-09-09T04:35:35;51.42;;;47.83;;
55202;SDS011;41077;52.956;6.796;2022-09-09T04:38:00;46.90;;;43.17;;
55202;SDS011;41077;52.956;6.796;2022-09-09T04:40:28;49.05;;;45.22;;
55202;SDS011;41077;52.956;6.796;2022-09-09T04:42:54;47.75;;;44.15;;
55202;SDS011;41077;52.956;6.796;2022-09-09T04:45:22;53.03;;;48.60;;
55202;SDS011;41077;52.956;6.796;2022-09-09T04:47:48;48.22;;;44.72;;
55202;SDS011;41077;52.956;6.796;2022-09-09T04:50:14;49.03;;;45.10;;
55202;SDS011;41077;52.956;6.796;2022-09-09T04:52:40;49.35;;;45.30;;
55202;SDS011;41077;52.956;6.796;2022-09-09T04:55:06;51.70;;;47.65;;
55202;SDS011;41077;52.956;6.796;2022-09-09T04:57:34;54.25;;;49.58;;
55202;SDS011;41077;52.956;6.796;2022-09-09T04:59:59;52.45;;;47.95;;
55202;SDS011;41077;52.956;6.796;2022-09-09T05:02:26;51.35;;;46.97;;
55202;SDS011;41077;52.956;6.796;2022-09-09T05:04:51;55.63;;;51.13;;
55202;SDS011;41077;52.956;6.796;2022-09-09T05:07:17;49.05;;;44.78;;
55202;SDS011;41077;52.956;6.796;2022-09-09T05:09:44;51.38;;;46.67;;
55202;SDS011;41077;52.956;6.796;2022-09-09T05:12:10;50.10;;;45.55;;
55202;SDS011;41077;52.956;6.796;2022-09-09T05:14:36;56.58;;;51.95;;
55202;SDS011;41077;52.956;6.796;2022-09-09T05:17:02;53.63;;;49.20;;
55202;SDS011;41077;52.956;6.796;2022-09-09T05:19:28;51.25;;;46.13;;
55202;SDS011;41077;52.956;6.796;2022-09-09T05:21:56;51.08;;;46.75;;
55202;SDS011;41077;52.956;6.796;2022-09-09T05:24:22;50.83;;;46.08;;
55202;SDS011;41077;52.956;6.796;2022-09-09T05:26:50;51.85;;;47.55;;
55202;SDS011;41077;52.956;6.796;2022-09-09T05:29:16;55.05;;;50.55;;
55202;SDS011;41077;52.956;6.796;2022-09-09T05:31:44;57.83;;;52.53;;
55202;SDS011;41077;52.956;6.796;2022-09-09T05:34:12;54.45;;;49.83;;
55202;SDS011;41077;52.956;6.796;2022-09-09T05:36:37;55.55;;;51.20;;
55202;SDS011;41077;52.956;6.796;2022-09-09T05:39:03;52.55;;;47.83;;
55202;SDS011;41077;52.956;6.796;2022-09-09T05:41:29;54.10;;;49.13;;
55202;SDS011;41077;52.956;6.796;2022-09-09T05:43:56;55.15;;;49.80;;
55202;SDS011;41077;52.956;6.796;2022-09-09T05:46:24;51.83;;;47.30;;
55202;SDS011;41077;52.956;6.796;2022-09-09T05:48:50;51.97;;;47.70;;
55202;SDS011;41077;52.956;6.796;2022-09-09T05:51:18;54.45;;;49.30;;
55202;SDS011;41077;52.956;6.796;2022-09-09T05:53:49;48.75;;;44.88;;
55202;SDS011;41077;52.956;6.796;2022-09-09T05:56:23;49.60;;;45.70;;
55202;SDS011;41077;52.956;6.796;2022-09-09T05:58:50;50.70;;;46.60;;
55202;SDS011;41077;52.956;6.796;2022-09-09T06:01:19;48.65;;;44.35;;
55202;SDS011;41077;52.956;6.796;2022-09-09T06:03:50;51.05;;;47.17;;
55202;SDS011;41077;52.956;6.796;2022-09-09T06:06:18;47.22;;;42.90;;
55202;SDS011;41077;52.956;6.796;2022-09-09T06:08:49;52.67;;;48.05;;
55202;SDS011;41077;52.956;6.796;2022-09-09T06:11:23;49.55;;;45.65;;
55202;SDS011;41077;52.956;6.796;2022-09-09T06:13:51;50.05;;;46.47;;
55202;SDS011;41077;52.956;6.796;2022-09-09T06:16:19;52.78;;;48.75;;
55202;SDS011;41077;52.956;6.796;2022-09-09T06:18:49;52.08;;;47.45;;
55202;SDS011;41077;52.956;6.796;2022-09-09T06:23:45;52.30;;;47.78;;
55202;SDS011;41077;52.956;6.796;2022-09-09T06:26:14;50.58;;;46.67;;
55202;SDS011;41077;52.956;6.796;2022-09-09T06:28:47;53.20;;;49.28;;
55202;SDS011;41077;52.956;6.796;2022-09-09T06:31:18;50.13;;;46.08;;
55202;SDS011;41077;52.956;6.796;2022-09-09T06:33:49;47.33;;;43.47;;
55202;SDS011;41077;52.956;6.796;2022-09-09T06:36:17;47.03;;;43.47;;
55202;SDS011;41077;52.956;6.796;2022-09-09T06:38:47;47.05;;;43.42;;
55202;SDS011;41077;52.956;6.796;2022-09-09T06:41:14;49.15;;;44.83;;
55202;SDS011;41077;52.956;6.796;2022-09-09T06:43:41;52.25;;;48.35;;
55202;SDS011;41077;52.956;6.796;2022-09-09T06:46:11;51.00;;;47.42;;
55202;SDS011;41077;52.956;6.796;2022-09-09T06:48:38;51.83;;;47.90;;
55202;SDS011;41077;52.956;6.796;2022-09-09T06:51:13;51.38;;;47.67;;
55202;SDS011;41077;52.956;6.796;2022-09-09T06:53:44;56.40;;;51.63;;
55202;SDS011;41077;52.956;6.796;2022-09-09T06:58:36;55.42;;;51.58;;
55202;SDS011;41077;52.956;6.796;2022-09-09T07:01:15;54.83;;;51.08;;
55202;SDS011;41077;52.956;6.796;2022-09-09T07:03:42;52.78;;;49.17;;
55202;SDS011;41077;52.956;6.796;2022-09-09T07:06:15;52.80;;;48.65;;
55202;SDS011;41077;52.956;6.796;2022-09-09T07:08:49;52.47;;;48.55;;
55202;SDS011;41077;52.956;6.796;2022-09-09T07:11:16;59.53;;;55.40;;
55202;SDS011;41077;52.956;6.796;2022-09-09T07:13:42;50.00;;;46.35;;
55202;SDS011;41077;52.956;6.796;2022-09-09T07:16:10;56.60;;;52.30;;
55202;SDS011;41077;52.956;6.796;2022-09-09T07:18:38;59.83;;;55.38;;
55202;SDS011;41077;52.956;6.796;2022-09-09T07:21:04;58.30;;;54.35;;
55202;SDS011;41077;52.956;6.796;2022-09-09T07:23:31;59.45;;;55.67;;
55202;SDS011;41077;52.956;6.796;2022-09-09T07:25:57;57.92;;;54.00;;
55202;SDS011;41077;52.956;6.796;2022-09-09T07:28:24;57.95;;;53.97;;
55202;SDS011;41077;52.956;6.796;2022-09-09T07:30:58;52.35;;;48.03;;
55202;SDS011;41077;52.956;6.796;2022-09-09T07:33:28;54.05;;;50.10;;
55202;SDS011;41077;52.956;6.796;2022-09-09T07:36:03;51.72;;;48.08;;
55202;SDS011;41077;52.956;6.796;2022-09-09T07:38:30;57.10;;;52.55;;
55202;SDS011;41077;52.956;6.796;2022-09-09T07:41:06;56.40;;;52.28;;
55202;SDS011;41077;52.956;6.796;2022-09-09T07:43:39;56.08;;;51.58;;
55202;SDS011;41077;52.956;6.796;2022-09-09T07:46:10;55.50;;;51.70;;
55202;SDS011;41077;52.956;6.796;2022-09-09T07:48:37;49.15;;;45.35;;
55202;SDS011;41077;52.956;6.796;2022-09-09T07:51:09;52.13;;;48.33;;
55202;SDS011;41077;52.956;6.796;2022-09-09T07:53:44;56.70;;;52.83;;
55202;SDS011;41077;52.956;6.796;2022-09-09T07:56:11;51.03;;;47.45;;
55202;SDS011;41077;52.956;6.796;2022-09-09T07:58:39;63.35;;;58.95;;
55202;SDS011;41077;52.956;6.796;2022-09-09T08:01:16;54.90;;;50.85;;
55202;SDS011;41077;52.956;6.796;2022-09-09T08:03:44;59.22;;;55.03;;
55202;SDS011;41077;52.956;6.796;2022-09-09T08:06:11;51.67;;;48.13;;
55202;SDS011;41077;52.956;6.796;2022-09-09T08:08:38;47.47;;;44.15;;
55202;SDS011;41077;52.956;6.796;2022-09-09T08:11:13;49.72;;;44.63;;
55202;SDS011;41077;52.956;6.796;2022-09-09T08:13:40;50.30;;;46.78;;
55202;SDS011;41077;52.956;6.796;2022-09-09T08:16:09;50.15;;;46.80;;
55202;SDS011;41077;52.956;6.796;2022-09-09T08:18:34;50.05;;;46.20;;
55202;SDS011;41077;52.956;6.796;2022-09-09T08:21:04;53.08;;;48.92;;
55202;SDS011;41077;52.956;6.796;2022-09-09T08:23:31;48.22;;;44.20;;
55202;SDS011;41077;52.956;6.796;2022-09-09T08:26:04;42.75;;;39.80;;
55202;SDS011;41077;52.956;6.796;2022-09-09T08:28:31;43.55;;;40.53;;
55202;SDS011;41077;52.956;6.796;2022-09-09T08:31:04;56.75;;;52.90;;
55202;SDS011;41077;52.956;6.796;2022-09-09T08:33:31;49.08;;;45.42;;
55202;SDS011;41077;52.956;6.796;2022-09-09T08:35:58;50.53;;;47.17;;
55202;SDS011;41077;52.956;6.796;2022-09-09T08:38:24;45.88;;;42.53;;
55202;SDS011;41077;52.956;6.796;2022-09-09T08:40:49;45.17;;;42.13;;
55202;SDS011;41077;52.956;6.796;2022-09-09T08:43:21;57.38;;;53.08;;
55202;SDS011;41077;52.956;6.796;2022-09-09T08:51:08;43.35;;;40.17;;
55202;SDS011;41077;52.956;6.796;2022-09-09T08:53:42;44.38;;;41.13;;
55202;SDS011;41077;52.956;6.796;2022-09-09T08:56:31;41.45;;;37.90;;
55202;SDS011;41077;52.956;6.796;2022-09-09T08:58:59;42.22;;;39.30;;
55202;SDS011;41077;52.956;6.796;2022-09-09T09:10:12;58.45;;;54.47;;
55202;SDS011;41077;52.956;6.796;2022-09-09T09:12:49;42.70;;;39.58;;
55202;SDS011;41077;52.956;6.796;2022-09-09T09:15:21;49.00;;;45.50;;
55202;SDS011;41077;52.956;6.796;2022-09-09T09:17:51;46.55;;;43.53;;
55202;SDS011;41077;52.956;6.796;2022-09-09T09:20:18;46.63;;;43.47;;
55202;SDS011;41077;52.956;6.796;2022-09-09T09:22:55;46.88;;;43.80;;
55202;SDS011;41077;52.956;6.796;2022-09-09T09:25:35;38.67;;;35.53;;
55202;SDS011;41077;52.956;6.796;2022-09-09T09:28:24;45.40;;;41.78;;
55202;SDS011;41077;52.956;6.796;2022-09-09T09:30:53;44.20;;;40.05;;
55202;SDS011;41077;52.956;6.796;2022-09-09T09:36:17;49.28;;;45.90;;
55202;SDS011;41077;52.956;6.796;2022-09-09T09:38:54;41.35;;;38.20;;
55202;SDS011;41077;52.956;6.796;2022-09-09T09:41:35;43.95;;;40.88;;
55202;SDS011;41077;52.956;6.796;2022-09-09T09:44:04;46.53;;;43.25;;
55202;SDS011;41077;52.956;6.796;2022-09-09T09:46:31;41.00;;;37.78;;
55202;SDS011;41077;52.956;6.796;2022-09-09T09:49:01;41.58;;;37.90;;
55202;SDS011;41077;52.956;6.796;2022-09-09T09:51:29;41.08;;;37.33;;
55202;SDS011;41077;52.956;6.796;2022-09-09T09:54:30;38.50;;;35.53;;
55202;SDS011;41077;52.956;6.796;2022-09-09T09:56:53;35.67;;;32.65;;
55202;SDS011;41077;52.956;6.796;2022-09-09T09:59:20;43.80;;;40.80;;
55202;SDS011;41077;52.956;6.796;2022-09-09T10:01:46;34.85;;;31.83;;
55202;SDS011;41077;52.956;6.796;2022-09-09T10:06:38;34.03;;;31.23;;
55202;SDS011;41077;52.956;6.796;2022-09-09T10:09:26;36.35;;;33.53;;
55202;SDS011;41077;52.956;6.796;2022-09-09T10:14:30;31.52;;;28.95;;
55202;SDS011;41077;52.956;6.796;2022-09-09T10:19:43;30.52;;;27.80;;
55202;SDS011;41077;52.956;6.796;2022-09-09T10:22:33;31.60;;;29.00;;
55202;SDS011;41077;52.956;6.796;2022-09-09T10:30:17;33.10;;;30.60;;
55202;SDS011;41077;52.956;6.796;2022-09-09T10:35:31;30.48;;;28.17;;
55202;SDS011;41077;52.956;6.796;2022-09-09T10:46:17;29.75;;;27.58;;
55202;SDS011;41077;52.956;6.796;2022-09-09T10:57:00;31.27;;;29.13;;
55202;SDS011;41077;52.956;6.796;2022-09-09T10:59:48;34.83;;;32.08;;
55202;SDS011;41077;52.956;6.796;2022-09-09T11:02:36;30.48;;;28.20;;
55202;SDS011;41077;52.956;6.796;2022-09-09T11:07:54;30.40;;;28.55;;
55202;SDS011;41077;52.956;6.796;2022-09-09T11:13:03;25.73;;;23.52;;
55202;SDS011;41077;52.956;6.796;2022-09-09T11:15:36;26.55;;;24.10;;
55202;SDS011;41077;52.956;6.796;2022-09-09T11:18:11;23.88;;;22.05;;
55202;SDS011;41077;52.956;6.796;2022-09-09T11:20:43;26.13;;;23.95;;
55202;SDS011;41077;52.956;6.796;2022-09-09T11:23:11;24.75;;;22.88;;
55202;SDS011;41077;52.956;6.796;2022-09-09T11:25:51;23.60;;;21.10;;
55202;SDS011;41077;52.956;6.796;2022-09-09T11:42:15;10.70;;;7.63;;
55202;SDS011;41077;52.956;6.796;2022-09-09T11:44:45;10.02;;;4.93;;
55202;SDS011;41077;52.956;6.796;2022-09-09T11:47:20;12.60;;;6.18;;
55202;SDS011;41077;52.956;6.796;2022-09-09T11:49:51;14.90;;;6.35;;
55202;SDS011;41077;52.956;6.796;2022-09-09T11:55:07;11.65;;;4.90;;
55202;SDS011;41077;52.956;6.796;2022-09-09T11:57:56;13.23;;;6.70;;
55202;SDS011;41077;52.956;6.796;2022-09-09T12:03:00;9.32;;;6.72;;
55202;SDS011;41077;52.956;6.796;2022-09-09T12:05:39;9.57;;;7.63;;
55202;SDS011;41077;52.956;6.796;2022-09-09T12:08:09;8.98;;;7.63;;
55202;SDS011;41077;52.956;6.796;2022-09-09T12:10:40;14.80;;;12.98;;
55202;SDS011;41077;52.956;6.796;2022-09-09T12:13:16;17.40;;;10.18;;
55202;SDS011;41077;52.956;6.796;2022-09-09T12:15:51;14.80;;;10.40;;
55202;SDS011;41077;52.956;6.796;2022-09-09T12:18:21;16.27;;;9.65;;
55202;SDS011;41077;52.956;6.796;2022-09-09T12:24:03;11.57;;;9.32;;
55202;SDS011;41077;52.956;6.796;2022-09-09T12:26:37;11.35;;;9.30;;
55202;SDS011;41077;52.956;6.796;2022-09-09T12:32:22;13.27;;;12.27;;
55202;SDS011;41077;52.956;6.796;2022-09-09T12:34:52;10.75;;;8.90;;
55202;SDS011;41077;52.956;6.796;2022-09-09T12:37:33;11.30;;;10.20;;
55202;SDS011;41077;52.956;6.796;2022-09-09T12:40:22;11.57;;;10.48;;
55202;SDS011;41077;52.956;6.796;2022-09-09T12:42:50;12.35;;;9.18;;
55202;SDS011;41077;52.956;6.796;2022-09-09T12:45:19;12.15;;;9.38;;
55202;SDS011;41077;52.956;6.796;2022-09-09T12:48:00;12.05;;;9.57;;
55202;SDS011;41077;52.956;6.796;2022-09-09T12:50:32;11.20;;;9.87;;
55202;SDS011;41077;52.956;6.796;2022-09-09T12:53:09;12.35;;;10.85;;
55202;SDS011;41077;52.956;6.796;2022-09-09T12:55:48;12.15;;;11.05;;
55202;SDS011;41077;52.956;6.796;2022-09-09T12:58:35;12.52;;;11.43;;
55202;SDS011;41077;52.956;6.796;2022-09-09T13:01:03;15.68;;;13.90;;
55202;SDS011;41077;52.956;6.796;2022-09-09T13:03:30;12.98;;;11.65;;
55202;SDS011;41077;52.956;6.796;2022-09-09T13:05:58;12.43;;;11.18;;
55202;SDS011;41077;52.956;6.796;2022-09-09T13:08:36;18.25;;;16.83;;
55202;SDS011;41077;52.956;6.796;2022-09-09T13:11:03;14.35;;;12.45;;
55202;SDS011;41077;52.956;6.796;2022-09-09T13:13:39;16.45;;;14.85;;
55202;SDS011;41077;52.956;6.796;2022-09-09T13:16:06;17.75;;;16.40;;
55202;SDS011;41077;52.956;6.796;2022-09-09T13:18:44;13.57;;;12.50;;
55202;SDS011;41077;52.956;6.796;2022-09-09T13:21:09;15.27;;;14.20;;
55202;SDS011;41077;52.956;6.796;2022-09-09T13:23:36;15.63;;;14.25;;
55202;SDS011;41077;52.956;6.796;2022-09-09T13:26:04;27.10;;;25.40;;
55202;SDS011;41077;52.956;6.796;2022-09-09T13:28:33;19.40;;;17.80;;
55202;SDS011;41077;52.956;6.796;2022-09-09T13:31:18;16.23;;;14.57;;
55202;SDS011;41077;52.956;6.796;2022-09-09T13:33:54;22.27;;;20.23;;
55202;SDS011;41077;52.956;6.796;2022-09-09T13:36:27;16.70;;;15.27;;
55202;SDS011;41077;52.956;6.796;2022-09-09T13:38:56;22.17;;;20.33;;
55202;SDS011;41077;52.956;6.796;2022-09-09T13:41:29;14.48;;;12.88;;
55202;SDS011;41077;52.956;6.796;2022-09-09T13:44:14;14.00;;;12.88;;
55202;SDS011;41077;52.956;6.796;2022-09-09T13:46:48;13.43;;;12.18;;
55202;SDS011;41077;52.956;6.796;2022-09-09T13:49:41;14.50;;;13.13;;
55202;SDS011;41077;52.956;6.796;2022-09-09T13:52:11;14.02;;;12.68;;
55202;SDS011;41077;52.956;6.796;2022-09-09T13:54:38;15.77;;;14.13;;
55202;SDS011;41077;52.956;6.796;2022-09-09T13:57:05;18.58;;;17.17;;
55202;SDS011;41077;52.956;6.796;2022-09-09T13:59:40;14.98;;;13.70;;
55202;SDS011;41077;52.956;6.796;2022-09-09T14:02:06;15.55;;;14.23;;
55202;SDS011;41077;52.956;6.796;2022-09-09T14:04:32;21.25;;;19.83;;
55202;SDS011;41077;52.956;6.796;2022-09-09T14:07:00;16.25;;;15.25;;
55202;SDS011;41077;52.956;6.796;2022-09-09T14:09:26;16.33;;;14.93;;
55202;SDS011;41077;52.956;6.796;2022-09-09T14:11:52;19.40;;;17.90;;
55202;SDS011;41077;52.956;6.796;2022-09-09T14:14:17;17.42;;;15.90;;
55202;SDS011;41077;52.956;6.796;2022-09-09T14:16:43;18.40;;;16.75;;
55202;SDS011;41077;52.956;6.796;2022-09-09T14:19:09;21.27;;;19.90;;
55202;SDS011;41077;52.956;6.796;2022-09-09T14:21:35;18.40;;;16.92;;
55202;SDS011;41077;52.956;6.796;2022-09-09T14:24:01;26.48;;;24.90;;
55202;SDS011;41077;52.956;6.796;2022-09-09T14:26:26;18.67;;;17.05;;
55202;SDS011;41077;52.956;6.796;2022-09-09T14:28:53;23.60;;;21.77;;
55202;SDS011;41077;52.956;6.796;2022-09-09T14:31:20;29.20;;;27.25;;
55202;SDS011;41077;52.956;6.796;2022-09-09T14:33:46;20.08;;;18.33;;
55202;SDS011;41077;52.956;6.796;2022-09-09T14:36:11;13.30;;;12.20;;
55202;SDS011;41077;52.956;6.796;2022-09-09T14:38:38;16.85;;;15.70;;
55202;SDS011;41077;52.956;6.796;2022-09-09T14:41:07;26.40;;;24.83;;
55202;SDS011;41077;52.956;6.796;2022-09-09T14:43:37;18.05;;;16.75;;
55202;SDS011;41077;52.956;6.796;2022-09-09T14:46:10;15.73;;;14.85;;
55202;SDS011;41077;52.956;6.796;2022-09-09T14:51:07;13.57;;;12.43;;
55202;SDS011;41077;52.956;6.796;2022-09-09T14:53:34;11.05;;;10.05;;
55202;SDS011;41077;52.956;6.796;2022-09-09T14:56:07;12.65;;;11.63;;
55202;SDS011;41077;52.956;6.796;2022-09-09T14:58:36;14.20;;;13.38;;
55202;SDS011;41077;52.956;6.796;2022-09-09T15:01:10;13.40;;;12.45;;
55202;SDS011;41077;52.956;6.796;2022-09-09T15:06:05;17.02;;;15.93;;
55202;SDS011;41077;52.956;6.796;2022-09-09T15:08:36;13.68;;;12.80;;
55202;SDS011;41077;52.956;6.796;2022-09-09T15:11:03;16.02;;;14.68;;
55202;SDS011;41077;52.956;6.796;2022-09-09T15:13:30;13.60;;;12.65;;
55202;SDS011;41077;52.956;6.796;2022-09-09T15:16:00;14.13;;;13.18;;
55202;SDS011;41077;52.956;6.796;2022-09-09T15:18:32;13.35;;;12.43;;
55202;SDS011;41077;52.956;6.796;2022-09-09T15:20:59;16.00;;;15.00;;
55202;SDS011;41077;52.956;6.796;2022-09-09T15:23:28;16.58;;;15.18;;
55202;SDS011;41077;52.956;6.796;2022-09-09T15:25:56;14.23;;;13.30;;
55202;SDS011;41077;52.956;6.796;2022-09-09T15:28:21;12.93;;;12.10;;
55202;SDS011;41077;52.956;6.796;2022-09-09T15:30:48;14.27;;;13.32;;
55202;SDS011;41077;52.956;6.796;2022-09-09T15:33:15;15.20;;;14.15;;
55202;SDS011;41077;52.956;6.796;2022-09-09T15:35:40;15.18;;;14.25;;
55202;SDS011;41077;52.956;6.796;2022-09-09T15:38:06;15.90;;;15.00;;
55202;SDS011;41077;52.956;6.796;2022-09-09T15:40:32;13.50;;;12.35;;
55202;SDS011;41077;52.956;6.796;2022-09-09T15:42:58;15.15;;;14.15;;
55202;SDS011;41077;52.956;6.796;2022-09-09T15:45:24;15.43;;;14.02;;
55202;SDS011;41077;52.956;6.796;2022-09-09T15:47:49;14.65;;;13.75;;
55202;SDS011;41077;52.956;6.796;2022-09-09T15:50:15;15.63;;;14.63;;
55202;SDS011;41077;52.956;6.796;2022-09-09T15:52:41;16.30;;;15.35;;
55202;SDS011;41077;52.956;6.796;2022-09-09T15:55:07;18.20;;;16.88;;
55202;SDS011;41077;52.956;6.796;2022-09-09T15:57:35;15.57;;;14.50;;
55202;SDS011;41077;52.956;6.796;2022-09-09T16:00:02;16.20;;;15.00;;
55202;SDS011;41077;52.956;6.796;2022-09-09T16:02:29;15.95;;;14.85;;
55202;SDS011;41077;52.956;6.796;2022-09-09T16:04:55;16.33;;;15.05;;
55202;SDS011;41077;52.956;6.796;2022-09-09T16:07:22;15.90;;;14.60;;
55202;SDS011;41077;52.956;6.796;2022-09-09T16:09:48;15.95;;;14.75;;
55202;SDS011;41077;52.956;6.796;2022-09-09T16:12:16;15.25;;;14.25;;
55202;SDS011;41077;52.956;6.796;2022-09-09T16:14:42;16.65;;;15.18;;
55202;SDS011;41077;52.956;6.796;2022-09-09T16:17:08;17.58;;;16.13;;
55202;SDS011;41077;52.956;6.796;2022-09-09T16:19:33;16.13;;;14.98;;
55202;SDS011;41077;52.956;6.796;2022-09-09T16:21:59;17.13;;;15.95;;
55202;SDS011;41077;52.956;6.796;2022-09-09T16:24:25;16.85;;;15.60;;
55202;SDS011;41077;52.956;6.796;2022-09-09T16:26:52;15.45;;;14.52;;
55202;SDS011;41077;52.956;6.796;2022-09-09T16:29:19;19.83;;;17.67;;
55202;SDS011;41077;52.956;6.796;2022-09-09T16:31:46;19.42;;;17.50;;
55202;SDS011;41077;52.956;6.796;2022-09-09T16:34:13;16.67;;;15.35;;
55202;SDS011;41077;52.956;6.796;2022-09-09T16:36:40;17.77;;;16.52;;
55202;SDS011;41077;52.956;6.796;2022-09-09T16:39:08;17.20;;;16.00;;
55202;SDS011;41077;52.956;6.796;2022-09-09T16:41:39;17.42;;;16.10;;
55202;SDS011;41077;52.956;6.796;2022-09-09T16:44:06;17.85;;;16.13;;
55202;SDS011;41077;52.956;6.796;2022-09-09T16:46:37;16.75;;;15.50;;
55202;SDS011;41077;52.956;6.796;2022-09-09T16:49:06;17.83;;;16.50;;
55202;SDS011;41077;52.956;6.796;2022-09-09T16:51:34;18.98;;;17.33;;